createdAt,value
2023-11-30T00:00:27.854Z,25.05
2023-11-30T00:03:13.522Z,29.92
2023-11-30T00:05:59.222Z,25.27
2023-11-30T00:08:44.846Z,25.52
2023-11-30T00:11:30.528Z,27.42
2023-11-30T00:14:15.973Z,28.58
2023-11-30T00:17:03.319Z,27.30
2023-11-30T00:19:49.060Z,23.63
2023-11-30T00:22:34.737Z,26.15
2023-11-30T00:25:20.206Z,27.90
2023-11-30T00:28:05.831Z,25.38
2023-11-30T00:30:51.317Z,28.05
2023-11-30T00:33:37.311Z,27.73
2023-11-30T00:36:22.976Z,26.55
2023-11-30T00:39:09.610Z,28.80
2023-11-30T00:41:55.403Z,24.48
2023-11-30T00:44:40.932Z,29.58
2023-11-30T00:47:48.201Z,30.10
2023-11-30T00:50:43.431Z,27.80
2023-11-30T00:53:28.679Z,23.13
2023-11-30T00:56:15.417Z,29.25
2023-11-30T00:59:02.550Z,28.92
2023-11-30T01:01:48.744Z,30.10
2023-11-30T01:04:39.018Z,26.88
2023-11-30T01:07:25.482Z,25.38
2023-11-30T01:10:16.367Z,25.52
2023-11-30T01:13:02.555Z,25.08
2023-11-30T01:15:48.565Z,26.85
2023-11-30T01:18:34.685Z,29.25
2023-11-30T01:21:21.301Z,24.23
2023-11-30T01:24:06.611Z,25.40
2023-11-30T01:26:53.331Z,26.88
2023-11-30T01:29:38.767Z,26.75
2023-11-30T01:32:24.794Z,25.73
2023-11-30T01:35:10.228Z,25.60
2023-11-30T01:37:57.095Z,26.95
2023-11-30T01:40:42.852Z,25.42
2023-11-30T01:43:28.995Z,24.75
2023-11-30T01:46:15.161Z,23.70
2023-11-30T01:49:01.024Z,33.58
2023-11-30T01:51:46.829Z,26.88
2023-11-30T01:54:33.036Z,22.40
2023-11-30T01:57:19.629Z,24.95
2023-11-30T02:00:10.375Z,25.80
2023-11-30T02:02:57.457Z,24.45
2023-11-30T02:05:44.558Z,26.73
2023-11-30T02:08:30.741Z,26.60
2023-11-30T02:11:16.824Z,23.55
2023-11-30T02:14:05.049Z,33.08
2023-11-30T02:16:51.158Z,22.55
2023-11-30T02:19:37.072Z,25.38
2023-11-30T02:22:23.362Z,29.20
2023-11-30T02:25:09.822Z,29.30
2023-11-30T02:28:01.679Z,23.15
2023-11-30T02:30:47.870Z,25.02
2023-11-30T02:33:33.553Z,23.17
2023-11-30T02:36:20.629Z,24.52
2023-11-30T02:39:06.670Z,24.25
2023-11-30T02:41:52.420Z,26.33
2023-11-30T02:44:38.204Z,23.10
2023-11-30T02:47:23.860Z,22.42
2023-11-30T02:50:10.502Z,24.58
2023-11-30T02:52:56.158Z,25.15
2023-11-30T02:55:41.648Z,25.98
2023-11-30T02:58:28.102Z,23.30
2023-11-30T03:01:19.903Z,25.83
2023-11-30T03:04:11.329Z,24.27
2023-11-30T03:06:56.848Z,23.58
2023-11-30T03:09:42.418Z,28.85
2023-11-30T03:12:27.898Z,22.23
2023-11-30T03:15:15.751Z,21.73
2023-11-30T03:18:01.448Z,24.38
2023-11-30T03:20:47.190Z,26.77
2023-11-30T03:23:34.328Z,24.98
2023-11-30T03:26:19.969Z,24.83
2023-11-30T03:29:05.353Z,24.52
2023-11-30T03:31:51.079Z,25.15
2023-11-30T03:34:36.718Z,24.23
2023-11-30T03:37:22.533Z,25.00
2023-11-30T03:40:08.700Z,28.00
2023-11-30T03:42:54.139Z,25.85
2023-11-30T03:45:39.808Z,25.75
2023-11-30T03:48:25.520Z,24.60
2023-11-30T03:51:11.690Z,22.00
2023-11-30T03:53:57.844Z,34.55
2023-11-30T03:56:43.550Z,23.50
2023-11-30T03:59:29.038Z,25.33
2023-11-30T04:02:14.712Z,23.33
2023-11-30T04:05:00.741Z,24.05
2023-11-30T04:07:46.531Z,25.95
2023-11-30T04:10:31.888Z,25.63
2023-11-30T04:13:17.853Z,23.88
2023-11-30T04:16:03.335Z,24.55
2023-11-30T04:18:48.964Z,23.05
2023-11-30T04:21:34.535Z,22.40
2023-11-30T04:24:20.345Z,25.65
2023-11-30T04:27:05.966Z,29.13
2023-11-30T04:29:51.661Z,29.33
2023-11-30T04:32:37.141Z,23.13
2023-11-30T04:35:22.718Z,20.73
2023-11-30T04:38:08.558Z,21.40
2023-11-30T04:40:54.121Z,27.58
2023-11-30T04:43:41.308Z,25.27
2023-11-30T04:46:27.593Z,30.63
2023-11-30T04:49:13.079Z,23.48
2023-11-30T04:51:58.783Z,22.33
2023-11-30T04:54:44.254Z,25.65
2023-11-30T04:57:29.911Z,26.50
2023-11-30T05:00:16.099Z,23.73
2023-11-30T05:03:01.733Z,23.98
2023-11-30T05:05:47.309Z,25.63
2023-11-30T05:08:32.920Z,27.33
2023-11-30T05:11:18.696Z,28.00
2023-11-30T05:14:04.401Z,24.92
2023-11-30T05:16:49.902Z,25.38
2023-11-30T05:19:35.603Z,25.48
2023-11-30T05:22:21.132Z,26.58
2023-11-30T05:25:08.538Z,22.48
2023-11-30T05:27:54.333Z,26.15
2023-11-30T05:30:39.869Z,26.67
2023-11-30T05:33:28.204Z,24.15
2023-11-30T05:36:13.726Z,22.45
2023-11-30T05:38:59.959Z,26.25
2023-11-30T05:41:45.472Z,23.70
2023-11-30T05:44:31.159Z,26.75
2023-11-30T05:47:17.083Z,25.85
2023-11-30T05:50:05.149Z,22.77
2023-11-30T05:52:50.672Z,23.40
2023-11-30T05:55:38.116Z,24.08
2023-11-30T05:58:23.442Z,27.65
2023-11-30T06:01:09.058Z,25.42
2023-11-30T06:03:55.849Z,23.05
2023-11-30T06:06:42.124Z,29.90
2023-11-30T06:09:27.784Z,26.65
2023-11-30T06:12:13.561Z,24.92
2023-11-30T06:14:59.337Z,29.15
2023-11-30T06:17:44.828Z,26.42
2023-11-30T06:20:32.473Z,28.88
2023-11-30T06:23:18.325Z,30.63
2023-11-30T06:26:04.151Z,28.30
2023-11-30T06:28:49.844Z,25.50
2023-11-30T06:31:35.663Z,26.65
2023-11-30T06:34:21.698Z,27.38
2023-11-30T06:37:07.175Z,28.17
2023-11-30T06:39:52.845Z,25.52
2023-11-30T06:42:38.580Z,28.80
2023-11-30T06:45:24.131Z,28.15
2023-11-30T06:48:09.762Z,27.50
2023-11-30T06:50:55.275Z,33.28
2023-11-30T06:53:41.362Z,26.02
2023-11-30T06:56:26.837Z,28.58
2023-11-30T06:59:12.449Z,32.90
2023-11-30T07:01:58.528Z,30.50
2023-11-30T07:04:43.898Z,27.67
2023-11-30T07:07:34.189Z,30.67
2023-11-30T07:10:22.196Z,31.67
2023-11-30T07:13:08.179Z,29.67
2023-11-30T07:15:54.282Z,30.30
2023-11-30T07:18:40.337Z,29.85
2023-11-30T07:21:27.750Z,29.55
2023-11-30T07:24:13.568Z,27.58
2023-11-30T07:27:00.158Z,28.75
2023-11-30T07:29:46.877Z,31.92
2023-11-30T07:32:32.743Z,29.80
2023-11-30T07:35:18.415Z,30.73
2023-11-30T07:38:04.996Z,31.60
2023-11-30T07:40:51.128Z,34.58
2023-11-30T07:43:37.453Z,31.33
2023-11-30T07:46:23.282Z,40.78
2023-11-30T07:49:08.857Z,36.03
2023-11-30T07:51:54.640Z,34.47
2023-11-30T07:54:40.374Z,33.97
2023-11-30T07:57:25.937Z,42.17
2023-11-30T08:00:12.811Z,34.08
2023-11-30T08:02:58.527Z,37.47
2023-11-30T08:05:46.991Z,35.65
2023-11-30T08:08:32.348Z,42.33
2023-11-30T08:11:17.903Z,38.88
2023-11-30T08:14:03.634Z,51.22
2023-11-30T08:16:49.173Z,43.75
2023-11-30T08:19:35.071Z,50.60
2023-11-30T08:22:20.561Z,96.47
2023-11-30T08:25:06.822Z,61.50
2023-11-30T08:27:54.632Z,61.80
2023-11-30T08:30:42.482Z,58.47
2023-11-30T08:33:28.930Z,57.72
2023-11-30T08:36:14.384Z,54.30
2023-11-30T08:38:59.866Z,52.47
2023-11-30T08:41:45.453Z,74.15
2023-11-30T08:44:31.123Z,77.07
2023-11-30T08:47:16.716Z,42.35
2023-11-30T08:50:05.231Z,53.40
2023-11-30T08:52:50.935Z,45.90
2023-11-30T08:55:36.644Z,46.17
2023-11-30T08:58:22.431Z,48.08
2023-11-30T09:01:08.465Z,39.80
2023-11-30T09:03:53.953Z,43.97
2023-11-30T09:06:39.858Z,46.97
2023-11-30T09:09:25.508Z,43.60
2023-11-30T09:12:15.034Z,49.65
2023-11-30T09:15:00.725Z,54.10
2023-11-30T09:17:47.046Z,56.42
2023-11-30T09:20:32.557Z,50.13
2023-11-30T09:23:18.022Z,45.47
2023-11-30T09:26:08.220Z,50.30
2023-11-30T09:28:54.060Z,46.88
2023-11-30T09:31:42.661Z,51.78
2023-11-30T09:34:28.979Z,46.83
2023-11-30T09:37:14.446Z,45.03
2023-11-30T09:40:00.744Z,48.15
2023-11-30T09:42:47.214Z,50.67
2023-11-30T09:45:33.399Z,45.92
2023-11-30T09:48:19.097Z,49.85
2023-11-30T09:51:04.849Z,46.75
2023-11-30T09:53:50.402Z,49.58
2023-11-30T09:56:35.941Z,51.40
2023-11-30T09:59:21.336Z,47.75
2023-11-30T10:02:11.007Z,49.15
2023-11-30T10:04:58.170Z,51.35
2023-11-30T10:07:44.143Z,51.20
2023-11-30T10:10:29.988Z,45.97
2023-11-30T10:13:15.894Z,46.35
2023-11-30T10:16:02.240Z,45.08
2023-11-30T10:18:48.357Z,43.97
2023-11-30T10:21:33.799Z,43.90
2023-11-30T10:24:19.186Z,53.30
2023-11-30T10:27:09.723Z,46.10
2023-11-30T10:30:00.968Z,57.78
2023-11-30T10:32:46.538Z,55.63
2023-11-30T10:35:32.446Z,57.92
2023-11-30T10:38:27.932Z,68.28
2023-11-30T10:41:18.139Z,89.97
2023-11-30T10:44:06.788Z,56.72
2023-11-30T10:47:00.946Z,60.65
2023-11-30T10:49:47.930Z,88.30
2023-11-30T10:52:36.194Z,91.03
2023-11-30T10:55:22.881Z,73.60
2023-11-30T10:58:09.929Z,70.32
2023-11-30T11:00:59.967Z,53.67
2023-11-30T11:03:47.245Z,54.47
2023-11-30T11:06:34.026Z,55.88
2023-11-30T11:09:20.655Z,49.80
2023-11-30T11:12:06.750Z,45.95
2023-11-30T11:15:14.193Z,55.53
2023-11-30T11:18:05.119Z,45.55
2023-11-30T11:20:51.067Z,48.85
2023-11-30T11:23:40.243Z,49.90
2023-11-30T11:26:25.867Z,54.80
2023-11-30T11:29:14.320Z,44.45
2023-11-30T11:32:00.721Z,43.00
2023-11-30T11:34:46.020Z,47.92
2023-11-30T11:37:31.354Z,45.50
2023-11-30T11:40:18.449Z,45.20
2023-11-30T11:43:03.647Z,49.60
2023-11-30T11:45:49.728Z,46.22
2023-11-30T11:48:35.385Z,49.15
2023-11-30T11:51:20.846Z,47.53
2023-11-30T11:54:06.358Z,51.17
2023-11-30T11:56:53.635Z,46.00
2023-11-30T11:59:39.180Z,46.13
2023-11-30T12:02:24.873Z,46.00
2023-11-30T12:05:12.918Z,41.97
2023-11-30T12:08:01.271Z,40.75
2023-11-30T12:10:49.532Z,40.10
2023-11-30T12:13:38.966Z,36.50
2023-11-30T12:16:24.905Z,41.97
2023-11-30T12:19:10.817Z,38.30
2023-11-30T12:21:59.128Z,39.60
2023-11-30T12:24:44.681Z,34.60
2023-11-30T12:27:30.488Z,40.30
2023-11-30T12:30:16.301Z,41.92
2023-11-30T12:33:01.761Z,37.50
2023-11-30T12:35:47.562Z,40.00
2023-11-30T12:38:34.052Z,38.05
2023-11-30T12:41:19.738Z,33.45
2023-11-30T12:44:08.823Z,39.20
2023-11-30T12:46:54.591Z,41.13
2023-11-30T12:49:41.083Z,35.72
2023-11-30T12:52:28.208Z,34.58
2023-11-30T12:55:14.918Z,35.15
2023-11-30T12:58:01.388Z,35.08
2023-11-30T13:00:46.851Z,31.95
2023-11-30T13:03:32.762Z,33.65
2023-11-30T13:06:18.615Z,32.25
2023-11-30T13:09:04.992Z,31.48
2023-11-30T13:11:50.491Z,28.38
2023-11-30T13:14:35.922Z,24.17
2023-11-30T13:17:21.308Z,24.60
2023-11-30T13:20:09.378Z,23.67
2023-11-30T13:22:55.290Z,23.38
2023-11-30T13:25:40.555Z,27.90
2023-11-30T13:28:35.579Z,22.67
2023-11-30T13:31:26.884Z,22.88
2023-11-30T13:34:12.242Z,21.42
2023-11-30T13:36:58.020Z,23.58
2023-11-30T13:39:43.605Z,22.70
2023-11-30T13:42:29.148Z,19.50
2023-11-30T13:45:14.913Z,16.73
2023-11-30T13:48:00.865Z,15.10
2023-11-30T13:50:53.368Z,15.57
2023-11-30T13:53:44.542Z,14.02
2023-11-30T13:56:30.041Z,11.85
2023-11-30T13:59:15.707Z,16.50
2023-11-30T14:02:01.533Z,8.32
2023-11-30T14:04:47.459Z,11.77
2023-11-30T14:07:34.448Z,9.70
2023-11-30T14:10:21.352Z,6.82
2023-11-30T14:13:08.404Z,6.63
2023-11-30T14:15:54.024Z,8.77
2023-11-30T14:18:40.126Z,9.50
2023-11-30T14:21:25.561Z,7.57
2023-11-30T14:24:11.584Z,8.13
2023-11-30T14:26:58.129Z,7.43
2023-11-30T14:29:43.690Z,7.88
2023-11-30T14:32:29.193Z,7.20
2023-11-30T14:35:14.840Z,7.38
2023-11-30T14:38:00.505Z,6.28
2023-11-30T14:40:46.285Z,8.80
2023-11-30T14:43:31.725Z,5.47
2023-11-30T14:46:17.492Z,5.32
2023-11-30T14:49:03.421Z,5.28
2023-11-30T14:51:49.200Z,10.63
2023-11-30T14:54:35.688Z,5.35
2023-11-30T14:57:21.314Z,10.38
2023-11-30T15:00:12.569Z,5.80
2023-11-30T15:03:03.373Z,5.13
2023-11-30T15:05:49.022Z,8.02
2023-11-30T15:08:36.251Z,4.93
2023-11-30T15:11:22.027Z,6.60
2023-11-30T15:14:08.121Z,6.75
2023-11-30T15:16:54.054Z,6.40
2023-11-30T15:19:39.478Z,13.63
2023-11-30T15:22:25.291Z,5.63
2023-11-30T15:25:17.913Z,6.28
2023-11-30T15:30:52.276Z,3.45
2023-11-30T15:33:38.052Z,7.35
2023-11-30T15:36:23.838Z,5.38
2023-11-30T15:39:17.292Z,9.02
2023-11-30T15:42:02.860Z,6.63
2023-11-30T15:44:48.623Z,6.32
2023-11-30T15:47:34.465Z,6.47
2023-11-30T15:50:20.116Z,5.18
2023-11-30T15:53:06.037Z,7.03
2023-11-30T15:55:52.706Z,9.90
2023-11-30T15:58:38.632Z,9.65
2023-11-30T16:01:27.862Z,8.98
2023-11-30T16:04:13.977Z,7.65
2023-11-30T16:06:59.922Z,7.05
2023-11-30T16:09:45.755Z,7.90
2023-11-30T16:12:31.327Z,9.27
2023-11-30T16:15:17.110Z,8.77
2023-11-30T16:18:03.177Z,7.63
2023-11-30T16:20:48.343Z,7.53
2023-11-30T16:23:33.918Z,9.13
2023-11-30T16:26:21.326Z,9.48
2023-11-30T16:29:06.624Z,10.43
2023-11-30T16:31:52.341Z,9.93
2023-11-30T16:34:37.870Z,15.00
2023-11-30T16:37:23.885Z,14.02
2023-11-30T16:40:11.015Z,15.68
2023-11-30T16:42:57.450Z,10.02
2023-11-30T16:45:44.422Z,7.53
2023-11-30T16:48:30.103Z,7.45
2023-11-30T16:51:15.676Z,8.10
2023-11-30T16:54:01.182Z,7.90
2023-11-30T16:56:47.166Z,9.23
2023-11-30T16:59:32.715Z,10.15
2023-11-30T17:02:18.470Z,9.80
2023-11-30T17:05:10.759Z,13.32
2023-11-30T17:07:58.448Z,7.00
2023-11-30T17:10:45.498Z,8.25
2023-11-30T17:13:33.218Z,8.52
2023-11-30T17:16:18.910Z,11.25
2023-11-30T17:19:04.485Z,8.32
2023-11-30T17:21:51.954Z,8.05
2023-11-30T17:24:39.029Z,6.57
2023-11-30T17:27:25.936Z,7.95
2023-11-30T17:30:11.618Z,8.25
2023-11-30T17:32:57.408Z,11.52
2023-11-30T17:35:43.017Z,8.05
2023-11-30T17:38:28.770Z,9.43
2023-11-30T17:41:14.458Z,10.52
2023-11-30T17:44:00.192Z,9.50
2023-11-30T17:46:45.893Z,9.50
2023-11-30T17:49:31.844Z,11.15
2023-11-30T17:52:18.102Z,10.75
2023-11-30T17:55:03.832Z,8.45
2023-11-30T17:57:49.324Z,7.63
2023-11-30T18:00:34.807Z,8.07
2023-11-30T18:03:20.909Z,7.57
2023-11-30T18:06:10.342Z,11.30
2023-11-30T18:08:55.805Z,7.60
2023-11-30T18:11:42.188Z,10.55
2023-11-30T18:14:32.612Z,8.10
2023-11-30T18:17:18.020Z,6.47
2023-11-30T18:20:03.924Z,9.48
2023-11-30T18:22:49.191Z,12.23
2023-11-30T18:25:35.067Z,12.98
2023-11-30T18:28:20.667Z,14.02
2023-11-30T18:31:16.339Z,10.98
2023-11-30T18:34:07.811Z,8.52
2023-11-30T18:36:56.278Z,8.52
2023-11-30T18:39:41.584Z,10.07
2023-11-30T18:42:27.227Z,9.73
2023-11-30T18:45:12.755Z,9.50
2023-11-30T18:47:58.179Z,13.23
2023-11-30T18:50:43.518Z,11.07
2023-11-30T18:53:29.271Z,10.82
2023-11-30T18:56:15.070Z,10.90
2023-11-30T18:59:01.021Z,11.00
2023-11-30T19:01:47.092Z,9.23
2023-11-30T19:04:33.765Z,8.88
2023-11-30T19:07:19.545Z,9.25
2023-11-30T19:10:05.687Z,11.82
2023-11-30T19:12:51.304Z,10.52
2023-11-30T19:15:39.908Z,9.15
2023-11-30T19:18:26.068Z,8.35
2023-11-30T19:21:12.805Z,10.07
2023-11-30T19:23:58.520Z,9.15
2023-11-30T19:26:44.338Z,10.95
2023-11-30T19:29:31.157Z,10.18
2023-11-30T19:32:17.811Z,9.93
2023-11-30T19:35:03.102Z,8.70
2023-11-30T19:37:48.744Z,9.68
2023-11-30T19:40:34.204Z,8.63
2023-11-30T19:43:20.007Z,9.05
2023-11-30T19:46:05.518Z,12.40
2023-11-30T19:48:51.359Z,8.65
2023-11-30T19:51:37.150Z,11.50
2023-11-30T19:54:22.775Z,17.13
2023-11-30T19:57:08.675Z,12.18
2023-11-30T19:59:54.193Z,9.63
2023-11-30T20:02:39.951Z,13.45
2023-11-30T20:05:25.905Z,15.85
2023-11-30T20:08:11.400Z,13.00
2023-11-30T20:10:57.291Z,13.88
2023-11-30T20:13:43.040Z,14.48
2023-11-30T20:16:28.694Z,15.45
2023-11-30T20:19:14.314Z,22.42
2023-11-30T20:21:59.882Z,14.48
2023-11-30T20:24:45.510Z,21.63
2023-11-30T20:27:31.257Z,21.63
2023-11-30T20:30:16.898Z,19.98
2023-11-30T20:33:02.589Z,19.33
2023-11-30T20:35:48.189Z,19.25
2023-11-30T20:38:34.952Z,19.90
2023-11-30T20:41:22.448Z,24.17
2023-11-30T20:44:08.015Z,26.88
2023-11-30T20:46:53.812Z,26.35
2023-11-30T20:49:39.371Z,23.40
2023-11-30T20:52:24.853Z,23.58
2023-11-30T20:55:10.592Z,27.70
2023-11-30T20:57:56.181Z,23.63
2023-11-30T21:00:41.653Z,27.42
2023-11-30T21:03:27.494Z,33.65
2023-11-30T21:06:13.286Z,37.78
2023-11-30T21:08:59.059Z,44.85
2023-11-30T21:11:44.828Z,42.83
2023-11-30T21:14:30.619Z,37.42
2023-11-30T21:17:16.376Z,36.97
2023-11-30T21:20:02.077Z,32.63
2023-11-30T21:22:47.447Z,31.73
2023-11-30T21:25:32.987Z,28.75
2023-11-30T21:28:18.642Z,26.33
2023-11-30T21:31:04.448Z,26.00
2023-11-30T21:33:50.279Z,28.67
2023-11-30T21:36:42.438Z,22.63
2023-11-30T21:39:29.897Z,22.98
2023-11-30T21:42:15.338Z,26.30
2023-11-30T21:45:03.886Z,22.40
2023-11-30T21:47:49.423Z,21.30
2023-11-30T21:50:34.929Z,27.15
2023-11-30T21:53:20.988Z,23.88
2023-11-30T21:56:07.066Z,27.13
2023-11-30T21:58:53.617Z,18.70
2023-11-30T22:01:39.479Z,22.50
2023-11-30T22:04:25.081Z,24.88
2023-11-30T22:07:10.702Z,25.90
2023-11-30T22:09:56.487Z,25.17
2023-11-30T22:12:42.469Z,21.55
2023-11-30T22:15:28.220Z,22.52
2023-11-30T22:18:14.027Z,20.10
2023-11-30T22:20:59.829Z,24.75
2023-11-30T22:23:45.353Z,21.13
2023-11-30T22:26:31.131Z,25.13
2023-11-30T22:29:16.701Z,26.73
2023-11-30T22:32:02.387Z,19.55
2023-11-30T22:34:48.487Z,23.25
2023-11-30T22:37:34.331Z,23.40
2023-11-30T22:40:19.842Z,16.52
2023-11-30T22:43:05.534Z,15.20
2023-11-30T22:45:51.328Z,20.40
2023-11-30T22:48:36.874Z,20.70
2023-11-30T22:51:23.621Z,18.92
2023-11-30T22:54:08.933Z,18.42
2023-11-30T22:56:55.103Z,19.17
2023-11-30T22:59:40.716Z,20.10
2023-11-30T23:02:28.383Z,22.42
2023-11-30T23:05:14.417Z,30.27
2023-11-30T23:08:00.397Z,23.95
2023-11-30T23:10:46.033Z,22.02
2023-11-30T23:13:31.793Z,20.25
2023-11-30T23:16:17.511Z,16.35
2023-11-30T23:19:03.287Z,16.27
2023-11-30T23:21:48.666Z,20.92
2023-11-30T23:24:34.323Z,19.30
2023-11-30T23:27:21.373Z,19.83
2023-11-30T23:30:07.720Z,19.67
2023-11-30T23:32:54.326Z,18.92
2023-11-30T23:35:40.091Z,24.25
2023-11-30T23:38:25.600Z,30.38
2023-11-30T23:41:11.308Z,26.83
2023-11-30T23:43:56.955Z,20.88
2023-11-30T23:46:42.686Z,21.40
2023-11-30T23:49:28.497Z,19.63
2023-11-30T23:52:14.902Z,23.13
2023-11-30T23:55:02.024Z,22.75
2023-11-30T23:57:47.467Z,21.17
